sensor_id;sensor_type;location;lat;lon;timestamp;P1;durP1;ratioP1;P2;durP2;ratioP2
56329;SDS011;42236;48.058;10.632;2023-03-05T00:00:48;41.53;;;19.33;;
56329;SDS011;42236;48.058;10.632;2023-03-05T00:03:34;40.20;;;18.77;;
56329;SDS011;42236;48.058;10.632;2023-03-05T00:06:20;38.77;;;17.27;;
56329;SDS011;42236;48.058;10.632;2023-03-05T00:09:08;36.27;;;16.20;;
56329;SDS011;42236;48.058;10.632;2023-03-05T00:11:54;41.10;;;18.07;;
56329;SDS011;42236;48.058;10.632;2023-03-05T00:14:39;34.63;;;17.23;;
56329;SDS011;42236;48.058;10.632;2023-03-05T00:17:25;42.47;;;17.70;;
56329;SDS011;42236;48.058;10.632;2023-03-05T00:20:11;38.77;;;18.67;;
56329;SDS011;42236;48.058;10.632;2023-03-05T00:22:56;37.83;;;17.90;;
56329;SDS011;42236;48.058;10.632;2023-03-05T00:25:42;40.77;;;18.77;;
56329;SDS011;42236;48.058;10.632;2023-03-05T00:28:30;36.93;;;17.57;;
56329;SDS011;42236;48.058;10.632;2023-03-05T00:31:16;42.50;;;18.70;;
56329;SDS011;42236;48.058;10.632;2023-03-05T00:34:05;37.33;;;18.47;;
56329;SDS011;42236;48.058;10.632;2023-03-05T00:36:56;39.53;;;17.97;;
56329;SDS011;42236;48.058;10.632;2023-03-05T00:39:42;34.13;;;16.47;;
56329;SDS011;42236;48.058;10.632;2023-03-05T00:42:27;37.70;;;17.00;;
56329;SDS011;42236;48.058;10.632;2023-03-05T00:45:13;38.23;;;17.47;;
56329;SDS011;42236;48.058;10.632;2023-03-05T00:47:59;38.30;;;18.23;;
56329;SDS011;42236;48.058;10.632;2023-03-05T00:50:44;38.10;;;18.23;;
56329;SDS011;42236;48.058;10.632;2023-03-05T00:53:30;41.07;;;16.17;;
56329;SDS011;42236;48.058;10.632;2023-03-05T00:56:16;37.43;;;16.53;;
56329;SDS011;42236;48.058;10.632;2023-03-05T00:59:02;30.40;;;15.03;;
56329;SDS011;42236;48.058;10.632;2023-03-05T01:01:48;36.43;;;14.67;;
56329;SDS011;42236;48.058;10.632;2023-03-05T01:04:33;39.50;;;16.37;;
56329;SDS011;42236;48.058;10.632;2023-03-05T01:07:19;35.23;;;15.73;;
56329;SDS011;42236;48.058;10.632;2023-03-05T01:10:05;31.57;;;14.43;;
56329;SDS011;42236;48.058;10.632;2023-03-05T01:12:52;28.13;;;14.03;;
56329;SDS011;42236;48.058;10.632;2023-03-05T01:15:38;37.97;;;16.50;;
56329;SDS011;42236;48.058;10.632;2023-03-05T01:18:24;32.47;;;14.20;;
56329;SDS011;42236;48.058;10.632;2023-03-05T01:21:09;34.43;;;16.03;;
56329;SDS011;42236;48.058;10.632;2023-03-05T01:23:55;27.50;;;15.20;;
56329;SDS011;42236;48.058;10.632;2023-03-05T01:26:41;31.33;;;14.97;;
56329;SDS011;42236;48.058;10.632;2023-03-05T01:29:26;38.07;;;17.37;;
56329;SDS011;42236;48.058;10.632;2023-03-05T01:32:12;34.20;;;14.57;;
56329;SDS011;42236;48.058;10.632;2023-03-05T01:34:59;36.50;;;15.63;;
56329;SDS011;42236;48.058;10.632;2023-03-05T01:37:46;29.87;;;14.83;;
56329;SDS011;42236;48.058;10.632;2023-03-05T01:40:32;33.17;;;15.20;;
56329;SDS011;42236;48.058;10.632;2023-03-05T01:43:25;32.23;;;14.20;;
56329;SDS011;42236;48.058;10.632;2023-03-05T01:49:22;30.03;;;14.27;;
56329;SDS011;42236;48.058;10.632;2023-03-05T01:52:15;31.23;;;15.30;;
56329;SDS011;42236;48.058;10.632;2023-03-05T01:57:53;30.60;;;15.27;;
56329;SDS011;42236;48.058;10.632;2023-03-05T02:00:43;39.17;;;15.67;;
56329;SDS011;42236;48.058;10.632;2023-03-05T02:03:31;28.90;;;12.70;;
56329;SDS011;42236;48.058;10.632;2023-03-05T02:06:18;32.80;;;15.10;;
56329;SDS011;42236;48.058;10.632;2023-03-05T02:09:04;31.53;;;16.10;;
56329;SDS011;42236;48.058;10.632;2023-03-05T02:11:50;33.60;;;15.87;;
56329;SDS011;42236;48.058;10.632;2023-03-05T02:14:36;36.57;;;15.90;;
56329;SDS011;42236;48.058;10.632;2023-03-05T02:17:24;32.33;;;15.70;;
56329;SDS011;42236;48.058;10.632;2023-03-05T02:20:15;36.50;;;16.60;;
56329;SDS011;42236;48.058;10.632;2023-03-05T02:23:05;36.40;;;16.20;;
56329;SDS011;42236;48.058;10.632;2023-03-05T02:25:51;35.37;;;15.97;;
56329;SDS011;42236;48.058;10.632;2023-03-05T02:28:42;31.37;;;15.23;;
56329;SDS011;42236;48.058;10.632;2023-03-05T02:31:31;33.57;;;14.57;;
56329;SDS011;42236;48.058;10.632;2023-03-05T02:34:16;29.20;;;13.87;;
56329;SDS011;42236;48.058;10.632;2023-03-05T02:37:03;35.40;;;15.60;;
56329;SDS011;42236;48.058;10.632;2023-03-05T02:39:49;36.90;;;16.60;;
56329;SDS011;42236;48.058;10.632;2023-03-05T02:42:34;33.63;;;15.83;;
56329;SDS011;42236;48.058;10.632;2023-03-05T02:45:20;34.83;;;15.17;;
56329;SDS011;42236;48.058;10.632;2023-03-05T02:48:06;37.97;;;17.07;;
56329;SDS011;42236;48.058;10.632;2023-03-05T02:50:52;36.47;;;16.63;;
56329;SDS011;42236;48.058;10.632;2023-03-05T02:53:39;36.70;;;17.03;;
56329;SDS011;42236;48.058;10.632;2023-03-05T02:56:24;40.23;;;15.93;;
56329;SDS011;42236;48.058;10.632;2023-03-05T02:59:10;33.03;;;15.77;;
56329;SDS011;42236;48.058;10.632;2023-03-05T03:01:56;36.87;;;16.87;;
56329;SDS011;42236;48.058;10.632;2023-03-05T03:04:42;30.50;;;15.47;;
56329;SDS011;42236;48.058;10.632;2023-03-05T03:07:28;33.97;;;15.93;;
56329;SDS011;42236;48.058;10.632;2023-03-05T03:10:14;36.63;;;16.90;;
56329;SDS011;42236;48.058;10.632;2023-03-05T03:13:00;31.87;;;16.00;;
56329;SDS011;42236;48.058;10.632;2023-03-05T03:15:46;42.13;;;17.60;;
56329;SDS011;42236;48.058;10.632;2023-03-05T03:18:31;35.90;;;16.37;;
56329;SDS011;42236;48.058;10.632;2023-03-05T03:21:19;32.97;;;15.27;;
56329;SDS011;42236;48.058;10.632;2023-03-05T03:24:07;34.57;;;16.17;;
56329;SDS011;42236;48.058;10.632;2023-03-05T03:26:52;34.13;;;17.23;;
56329;SDS011;42236;48.058;10.632;2023-03-05T03:29:38;33.63;;;15.23;;
56329;SDS011;42236;48.058;10.632;2023-03-05T03:32:23;35.47;;;15.73;;
56329;SDS011;42236;48.058;10.632;2023-03-05T03:35:09;35.67;;;16.97;;
56329;SDS011;42236;48.058;10.632;2023-03-05T03:37:56;37.57;;;17.20;;
56329;SDS011;42236;48.058;10.632;2023-03-05T03:40:42;37.77;;;16.47;;
56329;SDS011;42236;48.058;10.632;2023-03-05T03:43:27;33.97;;;17.50;;
56329;SDS011;42236;48.058;10.632;2023-03-05T03:46:13;34.33;;;17.20;;
56329;SDS011;42236;48.058;10.632;2023-03-05T03:48:59;38.67;;;16.80;;
56329;SDS011;42236;48.058;10.632;2023-03-05T03:51:46;37.57;;;18.47;;
56329;SDS011;42236;48.058;10.632;2023-03-05T03:54:33;39.77;;;17.50;;
56329;SDS011;42236;48.058;10.632;2023-03-05T03:57:19;36.20;;;16.50;;
56329;SDS011;42236;48.058;10.632;2023-03-05T04:00:05;36.37;;;18.23;;
56329;SDS011;42236;48.058;10.632;2023-03-05T04:02:51;34.77;;;17.13;;
56329;SDS011;42236;48.058;10.632;2023-03-05T04:05:37;33.37;;;15.17;;
56329;SDS011;42236;48.058;10.632;2023-03-05T04:08:22;37.87;;;18.33;;
56329;SDS011;42236;48.058;10.632;2023-03-05T04:11:08;36.77;;;17.37;;
56329;SDS011;42236;48.058;10.632;2023-03-05T04:13:54;38.93;;;17.47;;
56329;SDS011;42236;48.058;10.632;2023-03-05T04:16:39;40.07;;;18.20;;
56329;SDS011;42236;48.058;10.632;2023-03-05T04:19:25;36.07;;;16.33;;
56329;SDS011;42236;48.058;10.632;2023-03-05T04:22:13;37.60;;;17.17;;
56329;SDS011;42236;48.058;10.632;2023-03-05T04:24:59;41.73;;;17.63;;
56329;SDS011;42236;48.058;10.632;2023-03-05T04:27:47;34.47;;;17.40;;
56329;SDS011;42236;48.058;10.632;2023-03-05T04:30:33;39.47;;;17.20;;
56329;SDS011;42236;48.058;10.632;2023-03-05T04:33:19;36.43;;;18.10;;
56329;SDS011;42236;48.058;10.632;2023-03-05T04:36:05;38.37;;;18.47;;
56329;SDS011;42236;48.058;10.632;2023-03-05T04:38:51;30.20;;;16.47;;
56329;SDS011;42236;48.058;10.632;2023-03-05T04:41:36;39.37;;;17.17;;
56329;SDS011;42236;48.058;10.632;2023-03-05T04:44:22;31.90;;;16.17;;
56329;SDS011;42236;48.058;10.632;2023-03-05T04:47:10;37.87;;;16.67;;
56329;SDS011;42236;48.058;10.632;2023-03-05T04:49:55;33.37;;;15.27;;
56329;SDS011;42236;48.058;10.632;2023-03-05T04:52:42;37.10;;;17.47;;
56329;SDS011;42236;48.058;10.632;2023-03-05T04:55:28;33.93;;;16.70;;
56329;SDS011;42236;48.058;10.632;2023-03-05T04:58:14;35.33;;;16.70;;
56329;SDS011;42236;48.058;10.632;2023-03-05T05:01:00;38.80;;;18.17;;
56329;SDS011;42236;48.058;10.632;2023-03-05T05:03:47;38.63;;;17.93;;
56329;SDS011;42236;48.058;10.632;2023-03-05T05:06:32;39.20;;;17.47;;
56329;SDS011;42236;48.058;10.632;2023-03-05T05:09:18;34.40;;;15.60;;
56329;SDS011;42236;48.058;10.632;2023-03-05T05:12:04;34.30;;;17.70;;
56329;SDS011;42236;48.058;10.632;2023-03-05T05:14:49;36.23;;;17.80;;
56329;SDS011;42236;48.058;10.632;2023-03-05T05:17:35;36.47;;;17.37;;
56329;SDS011;42236;48.058;10.632;2023-03-05T05:20:21;35.53;;;16.83;;
56329;SDS011;42236;48.058;10.632;2023-03-05T05:23:06;38.93;;;18.33;;
56329;SDS011;42236;48.058;10.632;2023-03-05T05:25:56;36.10;;;17.43;;
56329;SDS011;42236;48.058;10.632;2023-03-05T05:28:43;41.03;;;18.60;;
56329;SDS011;42236;48.058;10.632;2023-03-05T05:31:28;42.37;;;18.97;;
56329;SDS011;42236;48.058;10.632;2023-03-05T05:34:14;36.40;;;15.97;;
56329;SDS011;42236;48.058;10.632;2023-03-05T05:37:00;40.60;;;16.93;;
56329;SDS011;42236;48.058;10.632;2023-03-05T05:39:46;36.93;;;17.37;;
56329;SDS011;42236;48.058;10.632;2023-03-05T05:42:34;34.97;;;17.33;;
56329;SDS011;42236;48.058;10.632;2023-03-05T05:45:20;32.60;;;16.73;;
56329;SDS011;42236;48.058;10.632;2023-03-05T05:48:06;36.83;;;16.87;;
56329;SDS011;42236;48.058;10.632;2023-03-05T05:50:52;39.03;;;18.07;;
56329;SDS011;42236;48.058;10.632;2023-03-05T05:53:37;29.73;;;15.30;;
56329;SDS011;42236;48.058;10.632;2023-03-05T05:56:23;37.43;;;17.07;;
56329;SDS011;42236;48.058;10.632;2023-03-05T05:59:09;40.57;;;18.73;;
56329;SDS011;42236;48.058;10.632;2023-03-05T06:01:55;35.53;;;15.83;;
56329;SDS011;42236;48.058;10.632;2023-03-05T06:04:41;34.80;;;16.40;;
56329;SDS011;42236;48.058;10.632;2023-03-05T06:07:27;35.93;;;16.93;;
56329;SDS011;42236;48.058;10.632;2023-03-05T06:10:12;39.43;;;17.03;;
56329;SDS011;42236;48.058;10.632;2023-03-05T06:12:58;35.90;;;16.80;;
56329;SDS011;42236;48.058;10.632;2023-03-05T06:15:44;37.07;;;17.03;;
56329;SDS011;42236;48.058;10.632;2023-03-05T06:18:29;32.50;;;16.23;;
56329;SDS011;42236;48.058;10.632;2023-03-05T06:21:17;36.53;;;16.40;;
56329;SDS011;42236;48.058;10.632;2023-03-05T06:24:04;40.40;;;18.23;;
56329;SDS011;42236;48.058;10.632;2023-03-05T06:26:50;43.70;;;17.37;;
56329;SDS011;42236;48.058;10.632;2023-03-05T06:29:35;37.63;;;17.70;;
56329;SDS011;42236;48.058;10.632;2023-03-05T06:32:21;39.53;;;18.00;;
56329;SDS011;42236;48.058;10.632;2023-03-05T06:35:07;40.90;;;18.13;;
56329;SDS011;42236;48.058;10.632;2023-03-05T06:37:53;38.70;;;18.93;;
56329;SDS011;42236;48.058;10.632;2023-03-05T06:40:39;34.57;;;15.73;;
56329;SDS011;42236;48.058;10.632;2023-03-05T06:43:24;34.27;;;16.23;;
56329;SDS011;42236;48.058;10.632;2023-03-05T06:46:14;41.27;;;18.53;;
56329;SDS011;42236;48.058;10.632;2023-03-05T06:49:02;37.50;;;18.63;;
56329;SDS011;42236;48.058;10.632;2023-03-05T06:51:48;42.37;;;18.00;;
56329;SDS011;42236;48.058;10.632;2023-03-05T06:54:34;42.90;;;18.60;;
56329;SDS011;42236;48.058;10.632;2023-03-05T06:57:21;38.83;;;17.17;;
56329;SDS011;42236;48.058;10.632;2023-03-05T07:00:07;42.60;;;18.77;;
56329;SDS011;42236;48.058;10.632;2023-03-05T07:02:58;36.00;;;17.63;;
56329;SDS011;42236;48.058;10.632;2023-03-05T07:05:44;41.00;;;18.73;;
56329;SDS011;42236;48.058;10.632;2023-03-05T07:08:31;42.03;;;16.90;;
56329;SDS011;42236;48.058;10.632;2023-03-05T07:11:18;38.67;;;18.20;;
56329;SDS011;42236;48.058;10.632;2023-03-05T07:14:04;36.60;;;17.00;;
56329;SDS011;42236;48.058;10.632;2023-03-05T07:16:50;39.57;;;18.63;;
56329;SDS011;42236;48.058;10.632;2023-03-05T07:19:36;42.37;;;17.43;;
56329;SDS011;42236;48.058;10.632;2023-03-05T07:22:22;41.50;;;18.47;;
56329;SDS011;42236;48.058;10.632;2023-03-05T07:25:08;41.63;;;18.57;;
56329;SDS011;42236;48.058;10.632;2023-03-05T07:27:54;40.40;;;17.50;;
56329;SDS011;42236;48.058;10.632;2023-03-05T07:30:40;35.67;;;16.93;;
56329;SDS011;42236;48.058;10.632;2023-03-05T07:33:26;41.43;;;18.60;;
56329;SDS011;42236;48.058;10.632;2023-03-05T07:36:12;40.10;;;18.83;;
56329;SDS011;42236;48.058;10.632;2023-03-05T07:38:58;41.87;;;18.33;;
56329;SDS011;42236;48.058;10.632;2023-03-05T07:41:45;43.40;;;18.97;;
56329;SDS011;42236;48.058;10.632;2023-03-05T07:44:31;38.03;;;17.43;;
56329;SDS011;42236;48.058;10.632;2023-03-05T07:47:17;40.37;;;18.83;;
56329;SDS011;42236;48.058;10.632;2023-03-05T07:50:03;40.50;;;19.23;;
56329;SDS011;42236;48.058;10.632;2023-03-05T07:52:49;39.87;;;18.90;;
56329;SDS011;42236;48.058;10.632;2023-03-05T07:55:40;41.10;;;18.53;;
56329;SDS011;42236;48.058;10.632;2023-03-05T07:58:26;40.17;;;18.10;;
56329;SDS011;42236;48.058;10.632;2023-03-05T08:01:12;40.30;;;19.27;;
56329;SDS011;42236;48.058;10.632;2023-03-05T08:03:59;41.50;;;19.23;;
56329;SDS011;42236;48.058;10.632;2023-03-05T08:06:45;42.63;;;18.93;;
56329;SDS011;42236;48.058;10.632;2023-03-05T08:09:31;39.83;;;18.20;;
56329;SDS011;42236;48.058;10.632;2023-03-05T08:12:17;39.10;;;19.03;;
56329;SDS011;42236;48.058;10.632;2023-03-05T08:15:02;39.33;;;18.10;;
56329;SDS011;42236;48.058;10.632;2023-03-05T08:17:48;40.17;;;17.80;;
56329;SDS011;42236;48.058;10.632;2023-03-05T08:20:34;38.67;;;18.80;;
56329;SDS011;42236;48.058;10.632;2023-03-05T08:23:20;41.33;;;18.00;;
56329;SDS011;42236;48.058;10.632;2023-03-05T08:26:19;38.13;;;17.87;;
56329;SDS011;42236;48.058;10.632;2023-03-05T08:29:06;33.67;;;17.20;;
56329;SDS011;42236;48.058;10.632;2023-03-05T08:31:53;35.30;;;16.93;;
56329;SDS011;42236;48.058;10.632;2023-03-05T08:34:39;36.60;;;16.27;;
56329;SDS011;42236;48.058;10.632;2023-03-05T08:37:25;36.47;;;15.43;;
56329;SDS011;42236;48.058;10.632;2023-03-05T08:40:12;34.90;;;15.80;;
56329;SDS011;42236;48.058;10.632;2023-03-05T08:42:58;32.20;;;14.67;;
56329;SDS011;42236;48.058;10.632;2023-03-05T08:45:44;28.70;;;13.80;;
56329;SDS011;42236;48.058;10.632;2023-03-05T08:48:31;37.33;;;15.63;;
56329;SDS011;42236;48.058;10.632;2023-03-05T08:51:18;27.50;;;13.03;;
56329;SDS011;42236;48.058;10.632;2023-03-05T08:54:06;29.10;;;13.53;;
56329;SDS011;42236;48.058;10.632;2023-03-05T08:56:52;31.00;;;15.17;;
56329;SDS011;42236;48.058;10.632;2023-03-05T08:59:38;32.73;;;14.47;;
56329;SDS011;42236;48.058;10.632;2023-03-05T09:02:24;31.50;;;14.97;;
56329;SDS011;42236;48.058;10.632;2023-03-05T09:05:09;33.60;;;14.20;;
56329;SDS011;42236;48.058;10.632;2023-03-05T09:07:55;30.40;;;13.43;;
56329;SDS011;42236;48.058;10.632;2023-03-05T09:10:43;28.93;;;13.20;;
56329;SDS011;42236;48.058;10.632;2023-03-05T09:13:30;27.10;;;12.07;;
56329;SDS011;42236;48.058;10.632;2023-03-05T09:16:17;27.17;;;11.47;;
56329;SDS011;42236;48.058;10.632;2023-03-05T09:19:03;24.23;;;11.23;;
56329;SDS011;42236;48.058;10.632;2023-03-05T09:21:49;23.17;;;9.60;;
56329;SDS011;42236;48.058;10.632;2023-03-05T09:24:35;22.37;;;9.43;;
56329;SDS011;42236;48.058;10.632;2023-03-05T09:27:20;18.27;;;9.90;;
56329;SDS011;42236;48.058;10.632;2023-03-05T09:30:06;26.50;;;13.17;;
56329;SDS011;42236;48.058;10.632;2023-03-05T09:32:53;28.80;;;12.00;;
56329;SDS011;42236;48.058;10.632;2023-03-05T09:35:39;25.83;;;12.00;;
56329;SDS011;42236;48.058;10.632;2023-03-05T09:38:24;28.40;;;13.13;;
56329;SDS011;42236;48.058;10.632;2023-03-05T09:44:36;20.57;;;9.73;;
56329;SDS011;42236;48.058;10.632;2023-03-05T09:56:36;25.13;;;11.30;;
56329;SDS011;42236;48.058;10.632;2023-03-05T09:59:39;27.27;;;13.00;;
56329;SDS011;42236;48.058;10.632;2023-03-05T10:02:42;25.63;;;11.60;;
56329;SDS011;42236;48.058;10.632;2023-03-05T10:09:21;24.20;;;11.10;;
56329;SDS011;42236;48.058;10.632;2023-03-05T10:15:12;18.10;;;8.93;;
56329;SDS011;42236;48.058;10.632;2023-03-05T10:21:27;21.20;;;9.30;;
56329;SDS011;42236;48.058;10.632;2023-03-05T10:40:30;18.20;;;8.30;;
56329;SDS011;42236;48.058;10.632;2023-03-05T10:43:23;22.27;;;9.23;;
56329;SDS011;42236;48.058;10.632;2023-03-05T10:46:33;20.70;;;8.80;;
56329;SDS011;42236;48.058;10.632;2023-03-05T10:49:23;17.63;;;8.63;;
56329;SDS011;42236;48.058;10.632;2023-03-05T10:52:16;18.70;;;9.53;;
56329;SDS011;42236;48.058;10.632;2023-03-05T10:55:13;16.47;;;8.00;;
56329;SDS011;42236;48.058;10.632;2023-03-05T10:58:08;22.47;;;9.03;;
56329;SDS011;42236;48.058;10.632;2023-03-05T11:00:57;20.47;;;8.67;;
56329;SDS011;42236;48.058;10.632;2023-03-05T11:03:49;20.43;;;9.53;;
56329;SDS011;42236;48.058;10.632;2023-03-05T11:09:28;11.93;;;6.97;;
56329;SDS011;42236;48.058;10.632;2023-03-05T11:12:19;11.03;;;6.57;;
56329;SDS011;42236;48.058;10.632;2023-03-05T11:18:04;17.90;;;9.23;;
56329;SDS011;42236;48.058;10.632;2023-03-05T11:21:07;18.97;;;9.83;;
56329;SDS011;42236;48.058;10.632;2023-03-05T11:24:02;18.43;;;9.07;;
56329;SDS011;42236;48.058;10.632;2023-03-05T11:30:32;17.60;;;7.93;;
56329;SDS011;42236;48.058;10.632;2023-03-05T11:33:20;19.23;;;8.57;;
56329;SDS011;42236;48.058;10.632;2023-03-05T11:36:21;15.33;;;8.17;;
56329;SDS011;42236;48.058;10.632;2023-03-05T11:39:13;18.03;;;8.83;;
56329;SDS011;42236;48.058;10.632;2023-03-05T11:42:11;16.40;;;7.20;;
56329;SDS011;42236;48.058;10.632;2023-03-05T11:44:59;16.67;;;8.63;;
56329;SDS011;42236;48.058;10.632;2023-03-05T11:47:49;19.13;;;8.03;;
56329;SDS011;42236;48.058;10.632;2023-03-05T11:50:37;18.33;;;6.87;;
56329;SDS011;42236;48.058;10.632;2023-03-05T11:53:27;16.80;;;7.90;;
56329;SDS011;42236;48.058;10.632;2023-03-05T11:56:23;15.37;;;7.70;;
56329;SDS011;42236;48.058;10.632;2023-03-05T12:01:57;16.77;;;6.73;;
56329;SDS011;42236;48.058;10.632;2023-03-05T12:04:44;17.80;;;6.83;;
56329;SDS011;42236;48.058;10.632;2023-03-05T12:07:34;12.23;;;5.53;;
56329;SDS011;42236;48.058;10.632;2023-03-05T12:10:24;16.60;;;6.67;;
56329;SDS011;42236;48.058;10.632;2023-03-05T12:13:12;13.53;;;6.97;;
56329;SDS011;42236;48.058;10.632;2023-03-05T12:22:04;15.20;;;7.57;;
56329;SDS011;42236;48.058;10.632;2023-03-05T12:31:33;14.43;;;7.30;;
56329;SDS011;42236;48.058;10.632;2023-03-05T12:34:35;18.03;;;7.10;;
56329;SDS011;42236;48.058;10.632;2023-03-05T12:43:31;14.23;;;6.03;;
56329;SDS011;42236;48.058;10.632;2023-03-05T12:46:24;10.70;;;5.93;;
56329;SDS011;42236;48.058;10.632;2023-03-05T12:52:08;13.40;;;6.33;;
56329;SDS011;42236;48.058;10.632;2023-03-05T13:03:53;10.80;;;5.37;;
56329;SDS011;42236;48.058;10.632;2023-03-05T13:06:42;8.37;;;5.47;;
56329;SDS011;42236;48.058;10.632;2023-03-05T13:09:28;11.53;;;4.63;;
56329;SDS011;42236;48.058;10.632;2023-03-05T13:12:17;8.23;;;4.83;;
56329;SDS011;42236;48.058;10.632;2023-03-05T13:15:05;11.33;;;5.30;;
56329;SDS011;42236;48.058;10.632;2023-03-05T13:17:56;14.47;;;5.60;;
56329;SDS011;42236;48.058;10.632;2023-03-05T13:20:47;10.53;;;5.27;;
56329;SDS011;42236;48.058;10.632;2023-03-05T13:23:50;10.20;;;5.80;;
56329;SDS011;42236;48.058;10.632;2023-03-05T13:26:42;10.97;;;6.17;;
56329;SDS011;42236;48.058;10.632;2023-03-05T13:29:28;12.03;;;6.03;;
56329;SDS011;42236;48.058;10.632;2023-03-05T13:32:25;12.20;;;5.63;;
56329;SDS011;42236;48.058;10.632;2023-03-05T13:35:12;13.97;;;6.07;;
56329;SDS011;42236;48.058;10.632;2023-03-05T13:37:58;12.73;;;7.07;;
56329;SDS011;42236;48.058;10.632;2023-03-05T13:40:44;11.33;;;5.87;;
56329;SDS011;42236;48.058;10.632;2023-03-05T13:43:54;14.10;;;7.07;;
56329;SDS011;42236;48.058;10.632;2023-03-05T13:46:41;12.60;;;6.33;;
56329;SDS011;42236;48.058;10.632;2023-03-05T13:49:27;13.90;;;6.37;;
56329;SDS011;42236;48.058;10.632;2023-03-05T13:52:23;12.37;;;6.60;;
56329;SDS011;42236;48.058;10.632;2023-03-05T13:55:14;12.23;;;6.13;;
56329;SDS011;42236;48.058;10.632;2023-03-05T13:58:01;19.23;;;7.57;;
56329;SDS011;42236;48.058;10.632;2023-03-05T14:00:47;13.67;;;6.37;;
56329;SDS011;42236;48.058;10.632;2023-03-05T14:03:33;11.10;;;6.07;;
56329;SDS011;42236;48.058;10.632;2023-03-05T14:06:20;16.00;;;6.60;;
56329;SDS011;42236;48.058;10.632;2023-03-05T14:09:15;11.90;;;5.80;;
56329;SDS011;42236;48.058;10.632;2023-03-05T14:12:05;12.13;;;5.80;;
56329;SDS011;42236;48.058;10.632;2023-03-05T14:14:51;12.80;;;6.27;;
56329;SDS011;42236;48.058;10.632;2023-03-05T14:17:38;11.53;;;5.87;;
56329;SDS011;42236;48.058;10.632;2023-03-05T14:20:27;11.73;;;5.57;;
56329;SDS011;42236;48.058;10.632;2023-03-05T14:26:30;10.40;;;5.30;;
56329;SDS011;42236;48.058;10.632;2023-03-05T14:29:20;11.03;;;6.33;;
56329;SDS011;42236;48.058;10.632;2023-03-05T14:32:17;14.70;;;7.47;;
56329;SDS011;42236;48.058;10.632;2023-03-05T14:35:15;11.07;;;6.50;;
56329;SDS011;42236;48.058;10.632;2023-03-05T14:38:02;13.47;;;6.27;;
56329;SDS011;42236;48.058;10.632;2023-03-05T14:40:48;14.27;;;7.17;;
56329;SDS011;42236;48.058;10.632;2023-03-05T14:43:34;13.03;;;6.07;;
56329;SDS011;42236;48.058;10.632;2023-03-05T14:46:20;14.53;;;7.53;;
56329;SDS011;42236;48.058;10.632;2023-03-05T14:49:06;16.33;;;7.20;;
56329;SDS011;42236;48.058;10.632;2023-03-05T14:51:52;20.43;;;8.57;;
56329;SDS011;42236;48.058;10.632;2023-03-05T14:54:37;16.00;;;6.73;;
56329;SDS011;42236;48.058;10.632;2023-03-05T14:57:26;50.27;;;22.87;;
56329;SDS011;42236;48.058;10.632;2023-03-05T15:00:15;15.87;;;6.90;;
56329;SDS011;42236;48.058;10.632;2023-03-05T15:03:03;12.87;;;6.57;;
56329;SDS011;42236;48.058;10.632;2023-03-05T15:05:50;10.63;;;6.23;;
56329;SDS011;42236;48.058;10.632;2023-03-05T15:08:38;14.90;;;6.20;;
56329;SDS011;42236;48.058;10.632;2023-03-05T15:11:24;29.07;;;14.97;;
56329;SDS011;42236;48.058;10.632;2023-03-05T15:14:09;22.10;;;12.87;;
56329;SDS011;42236;48.058;10.632;2023-03-05T15:16:55;12.97;;;6.93;;
56329;SDS011;42236;48.058;10.632;2023-03-05T15:19:41;14.03;;;6.73;;
56329;SDS011;42236;48.058;10.632;2023-03-05T15:22:26;13.47;;;6.63;;
56329;SDS011;42236;48.058;10.632;2023-03-05T15:25:12;12.27;;;5.97;;
56329;SDS011;42236;48.058;10.632;2023-03-05T15:27:58;14.93;;;6.10;;
56329;SDS011;42236;48.058;10.632;2023-03-05T15:30:45;14.07;;;6.67;;
56329;SDS011;42236;48.058;10.632;2023-03-05T15:33:31;13.97;;;9.27;;
56329;SDS011;42236;48.058;10.632;2023-03-05T15:36:17;11.43;;;5.93;;
56329;SDS011;42236;48.058;10.632;2023-03-05T15:39:03;15.60;;;5.67;;
56329;SDS011;42236;48.058;10.632;2023-03-05T15:41:49;9.93;;;5.87;;
56329;SDS011;42236;48.058;10.632;2023-03-05T15:44:35;13.70;;;8.40;;
56329;SDS011;42236;48.058;10.632;2023-03-05T15:47:21;14.13;;;6.00;;
56329;SDS011;42236;48.058;10.632;2023-03-05T15:50:07;11.37;;;5.70;;
56329;SDS011;42236;48.058;10.632;2023-03-05T15:52:53;12.13;;;8.07;;
56329;SDS011;42236;48.058;10.632;2023-03-05T15:55:39;11.63;;;5.83;;
56329;SDS011;42236;48.058;10.632;2023-03-05T15:58:26;11.83;;;6.60;;
56329;SDS011;42236;48.058;10.632;2023-03-05T16:01:11;13.67;;;5.87;;
56329;SDS011;42236;48.058;10.632;2023-03-05T16:03:57;18.97;;;8.47;;
56329;SDS011;42236;48.058;10.632;2023-03-05T16:06:46;12.87;;;7.63;;
56329;SDS011;42236;48.058;10.632;2023-03-05T16:09:35;15.47;;;7.20;;
56329;SDS011;42236;48.058;10.632;2023-03-05T16:12:27;16.13;;;7.50;;
56329;SDS011;42236;48.058;10.632;2023-03-05T16:15:17;14.73;;;8.07;;
56329;SDS011;42236;48.058;10.632;2023-03-05T16:18:06;11.57;;;7.23;;
56329;SDS011;42236;48.058;10.632;2023-03-05T16:20:56;17.87;;;8.23;;
56329;SDS011;42236;48.058;10.632;2023-03-05T16:23:42;13.80;;;7.83;;
56329;SDS011;42236;48.058;10.632;2023-03-05T16:26:27;15.27;;;8.90;;
56329;SDS011;42236;48.058;10.632;2023-03-05T16:29:13;15.03;;;7.63;;
56329;SDS011;42236;48.058;10.632;2023-03-05T16:32:00;23.40;;;8.33;;
56329;SDS011;42236;48.058;10.632;2023-03-05T16:34:47;14.20;;;7.27;;
56329;SDS011;42236;48.058;10.632;2023-03-05T16:37:32;14.10;;;7.87;;
56329;SDS011;42236;48.058;10.632;2023-03-05T16:40:18;14.10;;;7.77;;
56329;SDS011;42236;48.058;10.632;2023-03-05T16:43:04;15.37;;;8.20;;
56329;SDS011;42236;48.058;10.632;2023-03-05T16:45:49;19.20;;;9.13;;
56329;SDS011;42236;48.058;10.632;2023-03-05T16:48:35;19.17;;;9.97;;
56329;SDS011;42236;48.058;10.632;2023-03-05T16:51:21;19.40;;;11.07;;
56329;SDS011;42236;48.058;10.632;2023-03-05T16:54:07;20.17;;;10.93;;
56329;SDS011;42236;48.058;10.632;2023-03-05T16:56:53;20.53;;;10.17;;
56329;SDS011;42236;48.058;10.632;2023-03-05T16:59:39;17.77;;;9.07;;
56329;SDS011;42236;48.058;10.632;2023-03-05T17:02:27;15.67;;;8.80;;
56329;SDS011;42236;48.058;10.632;2023-03-05T17:05:13;15.10;;;9.43;;
56329;SDS011;42236;48.058;10.632;2023-03-05T17:07:59;14.13;;;8.10;;
56329;SDS011;42236;48.058;10.632;2023-03-05T17:10:46;15.00;;;6.77;;
56329;SDS011;42236;48.058;10.632;2023-03-05T17:13:32;14.10;;;8.07;;
56329;SDS011;42236;48.058;10.632;2023-03-05T17:16:18;15.80;;;8.03;;
56329;SDS011;42236;48.058;10.632;2023-03-05T17:19:04;15.60;;;7.27;;
56329;SDS011;42236;48.058;10.632;2023-03-05T17:21:50;14.87;;;7.80;;
56329;SDS011;42236;48.058;10.632;2023-03-05T17:24:36;13.97;;;7.37;;
56329;SDS011;42236;48.058;10.632;2023-03-05T17:27:22;11.53;;;7.10;;
56329;SDS011;42236;48.058;10.632;2023-03-05T17:30:08;14.23;;;7.10;;
56329;SDS011;42236;48.058;10.632;2023-03-05T17:32:54;10.30;;;5.90;;
56329;SDS011;42236;48.058;10.632;2023-03-05T17:35:41;15.47;;;8.33;;
56329;SDS011;42236;48.058;10.632;2023-03-05T17:38:31;15.90;;;8.47;;
56329;SDS011;42236;48.058;10.632;2023-03-05T17:41:17;13.37;;;8.17;;